createdAt,value
2022-08-26T00:01:54.951Z,63.86
2022-08-26T00:04:23.838Z,63.70
2022-08-26T00:06:51.497Z,63.94
2022-08-26T00:09:18.708Z,63.72
2022-08-26T00:11:45.927Z,63.64
2022-08-26T00:14:14.154Z,63.59
2022-08-26T00:16:47.144Z,63.63
2022-08-26T00:19:20.244Z,63.70
2022-08-26T00:21:48.674Z,63.74
2022-08-26T00:24:18.295Z,63.59
2022-08-26T00:26:45.063Z,63.81
2022-08-26T00:29:12.773Z,64.05
2022-08-26T00:31:40.789Z,64.20
2022-08-26T00:34:09.606Z,64.12
2022-08-26T00:36:40.689Z,64.06
2022-08-26T00:39:08.435Z,64.20
2022-08-26T00:41:38.261Z,64.11
2022-08-26T00:44:06.825Z,64.14
2022-08-26T00:46:46.969Z,64.19
2022-08-26T00:49:19.905Z,64.35
2022-08-26T00:51:52.569Z,64.58
2022-08-26T00:54:24.262Z,64.69
2022-08-26T00:57:02.758Z,64.46
2022-08-26T00:59:32.760Z,64.48
2022-08-26T01:02:02.752Z,64.58
2022-08-26T01:04:32.042Z,64.45
2022-08-26T01:06:58.997Z,64.37
2022-08-26T01:09:27.238Z,64.26
2022-08-26T01:11:58.266Z,64.35
2022-08-26T01:14:30.131Z,64.36
2022-08-26T01:16:56.883Z,64.47
2022-08-26T01:19:31.971Z,64.30
2022-08-26T01:22:40.210Z,64.35
2022-08-26T01:25:08.283Z,64.46
2022-08-26T01:27:35.553Z,64.56
2022-08-26T01:30:05.291Z,64.23
2022-08-26T01:32:33.647Z,64.28
2022-08-26T01:35:01.159Z,64.37
2022-08-26T01:37:34.207Z,64.29
2022-08-26T01:40:01.201Z,64.41
2022-08-26T01:42:28.698Z,64.31
2022-08-26T01:45:05.557Z,64.31
2022-08-26T01:47:35.227Z,64.41
2022-08-26T01:50:07.069Z,64.42
2022-08-26T01:52:38.604Z,64.54
2022-08-26T01:55:06.839Z,64.63
2022-08-26T01:57:34.739Z,64.65
2022-08-26T02:00:09.641Z,64.69
2022-08-26T02:02:37.360Z,64.64
2022-08-26T02:05:07.503Z,64.76
2022-08-26T02:07:34.532Z,64.80
2022-08-26T02:10:01.272Z,64.70
2022-08-26T02:12:28.470Z,64.58
2022-08-26T02:15:00.165Z,64.63
2022-08-26T02:17:43.580Z,64.62
2022-08-26T02:20:14.927Z,64.71
2022-08-26T02:22:43.121Z,64.90
2022-08-26T02:25:25.560Z,64.97
2022-08-26T02:27:53.433Z,65.09
2022-08-26T02:30:32.282Z,65.18
2022-08-26T02:33:03.989Z,64.98
2022-08-26T02:35:34.897Z,64.96
2022-08-26T02:38:03.054Z,65.20
2022-08-26T02:40:41.165Z,65.06
2022-08-26T02:43:09.752Z,65.15
2022-08-26T02:45:37.542Z,65.16
2022-08-26T02:48:16.628Z,65.11
2022-08-26T02:50:45.969Z,65.10
2022-08-26T02:53:13.556Z,65.28
2022-08-26T02:55:41.109Z,65.31
2022-08-26T02:58:09.759Z,65.34
2022-08-26T03:00:38.779Z,65.38
2022-08-26T03:03:23.468Z,65.01
2022-08-26T03:05:51.412Z,65.05
2022-08-26T03:08:18.892Z,65.00
2022-08-26T03:10:48.128Z,64.85
2022-08-26T03:13:16.329Z,65.10
2022-08-26T03:15:44.273Z,64.98
2022-08-26T03:18:13.513Z,65.00
2022-08-26T03:20:40.203Z,65.10
2022-08-26T03:23:07.889Z,65.06
2022-08-26T03:25:35.932Z,65.06
2022-08-26T03:28:03.578Z,65.27
2022-08-26T03:30:45.220Z,65.25
2022-08-26T03:33:13.484Z,65.28
2022-08-26T03:35:42.130Z,65.20
2022-08-26T03:38:09.705Z,65.05
2022-08-26T03:40:37.973Z,65.10
2022-08-26T03:43:09.602Z,65.16
2022-08-26T03:45:37.347Z,65.22
2022-08-26T03:48:05.423Z,65.31
2022-08-26T03:50:34.214Z,65.35
2022-08-26T03:53:04.260Z,65.55
2022-08-26T03:55:34.180Z,65.53
2022-08-26T03:58:02.296Z,65.62
2022-08-26T04:00:29.776Z,65.71
2022-08-26T04:02:56.628Z,65.72
2022-08-26T04:05:24.277Z,65.51
2022-08-26T04:07:51.669Z,65.58
2022-08-26T04:10:28.430Z,65.74
2022-08-26T04:12:55.838Z,65.88
2022-08-26T04:15:27.275Z,66.15
2022-08-26T04:17:55.974Z,66.31
2022-08-26T04:20:24.935Z,66.25
2022-08-26T04:22:52.190Z,66.34
2022-08-26T04:25:19.093Z,66.61
2022-08-26T04:27:48.239Z,66.58
2022-08-26T04:30:16.812Z,66.59
2022-08-26T04:32:44.238Z,66.70
2022-08-26T04:35:11.405Z,66.80
2022-08-26T04:37:38.632Z,66.93
2022-08-26T04:40:07.713Z,67.18
2022-08-26T04:42:35.571Z,67.27
2022-08-26T04:45:05.632Z,67.36
2022-08-26T04:47:32.703Z,67.57
2022-08-26T04:50:00.176Z,67.62
2022-08-26T04:52:29.088Z,67.54
2022-08-26T04:54:57.911Z,67.42
2022-08-26T04:57:24.674Z,67.45
2022-08-26T04:59:51.347Z,67.39
2022-08-26T05:02:18.212Z,67.62
2022-08-26T05:04:45.782Z,67.50
2022-08-26T05:07:13.073Z,67.61
2022-08-26T05:09:40.980Z,67.73
2022-08-26T05:12:09.613Z,67.70
2022-08-26T05:14:36.328Z,67.83
2022-08-26T05:17:03.734Z,67.89
2022-08-26T05:19:31.718Z,67.87
2022-08-26T05:21:59.856Z,67.72
2022-08-26T05:24:26.581Z,67.51
2022-08-26T05:26:54.242Z,67.77
2022-08-26T05:29:23.402Z,67.75
2022-08-26T05:31:53.627Z,67.71
2022-08-26T05:34:23.445Z,67.93
2022-08-26T05:36:52.737Z,67.86
2022-08-26T05:39:20.128Z,67.69
2022-08-26T05:41:47.805Z,67.91
2022-08-26T05:44:17.765Z,67.87
2022-08-26T05:46:46.052Z,68.06
2022-08-26T05:49:16.020Z,67.90
2022-08-26T05:51:47.544Z,67.83
2022-08-26T05:54:21.906Z,67.89
2022-08-26T05:56:50.966Z,68.17
2022-08-26T05:59:21.283Z,68.20
2022-08-26T06:01:51.306Z,68.34
2022-08-26T06:04:18.071Z,68.29
2022-08-26T06:06:47.375Z,68.38
2022-08-26T06:09:14.354Z,68.39
2022-08-26T06:11:44.376Z,68.51
2022-08-26T06:14:11.241Z,68.26
2022-08-26T06:16:41.298Z,68.14
2022-08-26T06:19:10.538Z,68.40
2022-08-26T06:21:41.313Z,68.60
2022-08-26T06:24:30.441Z,68.61
2022-08-26T06:27:01.625Z,68.75
2022-08-26T06:29:36.101Z,68.78
2022-08-26T06:32:04.986Z,68.54
2022-08-26T06:34:31.799Z,68.57
2022-08-26T06:37:02.614Z,68.40
2022-08-26T06:39:31.780Z,68.34
2022-08-26T06:42:00.500Z,68.46
2022-08-26T06:44:27.678Z,68.63
2022-08-26T06:46:55.122Z,68.63
2022-08-26T06:49:26.771Z,68.59
2022-08-26T06:51:59.702Z,68.81
2022-08-26T06:54:30.844Z,68.78
2022-08-26T06:56:57.761Z,68.62
2022-08-26T06:59:25.848Z,68.59
2022-08-26T07:01:53.522Z,68.51
2022-08-26T07:04:22.354Z,68.54
2022-08-26T07:06:53.372Z,68.50
2022-08-26T07:09:26.848Z,68.52
2022-08-26T07:11:58.591Z,68.33
2022-08-26T07:14:26.408Z,68.12
2022-08-26T07:16:54.072Z,68.12
2022-08-26T07:19:30.565Z,68.04
2022-08-26T07:22:03.882Z,68.02
2022-08-26T07:24:33.279Z,68.08
2022-08-26T07:27:06.871Z,67.63
2022-08-26T07:29:37.813Z,67.59
2022-08-26T07:32:06.520Z,67.51
2022-08-26T07:34:33.622Z,67.21
2022-08-26T07:37:01.405Z,66.99
2022-08-26T07:39:31.637Z,66.75
2022-08-26T07:42:01.925Z,66.29
2022-08-26T07:44:35.450Z,66.26
2022-08-26T07:47:02.360Z,66.02
2022-08-26T07:49:29.968Z,65.88
2022-08-26T07:51:57.054Z,65.88
2022-08-26T07:54:24.736Z,65.91
2022-08-26T07:56:54.466Z,65.82
2022-08-26T07:59:23.398Z,65.23
2022-08-26T08:01:50.322Z,65.44
2022-08-26T08:04:21.880Z,65.14
2022-08-26T08:06:53.616Z,64.98
2022-08-26T08:09:20.552Z,64.69
2022-08-26T08:11:50.067Z,64.45
2022-08-26T08:14:22.369Z,63.76
2022-08-26T08:16:51.275Z,63.71
2022-08-26T08:19:22.099Z,63.78
2022-08-26T08:21:49.335Z,64.11
2022-08-26T08:24:16.539Z,63.90
2022-08-26T08:26:43.980Z,63.73
2022-08-26T08:29:10.789Z,63.81
2022-08-26T08:31:56.640Z,63.96
2022-08-26T08:34:26.260Z,62.40
2022-08-26T08:36:54.193Z,62.49
2022-08-26T08:39:22.439Z,62.32
2022-08-26T08:42:07.617Z,62.27
2022-08-26T08:44:41.171Z,61.82
2022-08-26T08:47:31.375Z,61.51
2022-08-26T08:50:05.636Z,60.50
2022-08-26T08:52:37.719Z,60.18
2022-08-26T08:55:11.151Z,59.36
2022-08-26T08:58:02.444Z,58.77
2022-08-26T09:00:39.777Z,57.68
2022-08-26T09:03:27.722Z,57.25
2022-08-26T09:05:58.961Z,57.51
2022-08-26T09:08:30.337Z,57.42
2022-08-26T09:11:00.590Z,56.60
2022-08-26T09:13:29.242Z,55.76
2022-08-26T09:16:19.088Z,55.19
2022-08-26T09:19:10.959Z,55.28
2022-08-26T09:21:38.389Z,55.74
2022-08-26T09:24:07.159Z,55.97
2022-08-26T09:26:39.978Z,56.04
2022-08-26T09:29:15.960Z,56.24
2022-08-26T09:31:42.814Z,55.83
2022-08-26T09:34:12.595Z,54.70
2022-08-26T09:36:51.479Z,54.62
2022-08-26T09:39:24.101Z,53.79
2022-08-26T09:42:11.826Z,53.44
2022-08-26T09:44:53.887Z,52.97
2022-08-26T09:47:26.749Z,53.11
2022-08-26T09:50:28.818Z,53.21
2022-08-26T09:53:28.500Z,53.54
2022-08-26T09:56:28.504Z,53.48
2022-08-26T09:58:56.892Z,52.72
2022-08-26T10:01:23.529Z,53.27
2022-08-26T10:03:51.491Z,53.14
2022-08-26T10:06:20.986Z,53.29
2022-08-26T10:08:52.490Z,52.87
2022-08-26T10:11:33.100Z,52.72
2022-08-26T10:14:11.653Z,51.99
2022-08-26T10:16:50.781Z,50.77
2022-08-26T10:19:25.454Z,49.36
2022-08-26T10:22:18.007Z,47.29
2022-08-26T10:24:51.921Z,48.75
2022-08-26T10:27:34.929Z,48.57
2022-08-26T10:30:10.529Z,46.41
2022-08-26T10:32:41.280Z,45.16
2022-08-26T10:35:13.557Z,44.19
2022-08-26T10:37:54.431Z,43.75
2022-08-26T10:40:53.475Z,43.63
2022-08-26T10:43:28.583Z,43.14
2022-08-26T10:46:03.517Z,43.79
2022-08-26T10:48:48.156Z,42.78
2022-08-26T10:51:20.082Z,42.66
2022-08-26T10:53:55.953Z,42.39
2022-08-26T10:56:41.337Z,41.96
2022-08-26T10:59:52.778Z,41.43
2022-08-26T11:02:33.103Z,40.36
2022-08-26T11:05:06.088Z,40.36
2022-08-26T11:07:47.676Z,41.02
2022-08-26T11:10:19.356Z,40.75
2022-08-26T11:12:49.139Z,41.12
2022-08-26T11:15:26.732Z,42.16
2022-08-26T11:18:03.202Z,42.17
2022-08-26T11:20:42.250Z,42.06
2022-08-26T11:23:22.535Z,41.53
2022-08-26T11:26:01.390Z,42.01
2022-08-26T11:28:38.341Z,42.57
2022-08-26T11:31:10.212Z,42.39
2022-08-26T11:34:03.266Z,41.85
2022-08-26T11:36:42.307Z,41.08
2022-08-26T11:39:25.763Z,41.92
2022-08-26T11:41:55.869Z,42.01
2022-08-26T11:44:38.012Z,42.25
2022-08-26T11:47:05.901Z,42.74
2022-08-26T11:49:39.038Z,41.70
2022-08-26T11:52:26.657Z,42.13
2022-08-26T11:55:00.747Z,40.46
2022-08-26T11:57:28.967Z,41.24
2022-08-26T11:59:56.927Z,40.49
2022-08-26T12:02:25.050Z,39.86
2022-08-26T12:04:54.920Z,39.15
2022-08-26T12:07:28.854Z,39.03
2022-08-26T14:17:33.119Z,33.23
2022-08-26T14:19:59.997Z,32.72
2022-08-26T14:22:26.815Z,33.24
2022-08-26T14:24:54.222Z,33.16
2022-08-26T14:27:21.060Z,32.79
2022-08-26T14:29:47.987Z,32.49
2022-08-26T14:32:24.998Z,32.16
2022-08-26T14:34:52.283Z,32.07
2022-08-26T14:37:19.795Z,31.98
2022-08-26T14:39:47.154Z,32.08
2022-08-26T14:42:17.975Z,32.65
2022-08-26T14:44:48.823Z,32.40
2022-08-26T14:47:15.686Z,31.98
2022-08-26T14:49:42.704Z,31.96
2022-08-26T14:52:09.637Z,31.84
2022-08-26T14:54:37.553Z,31.74
2022-08-26T14:57:08.118Z,31.47
2022-08-26T14:59:43.418Z,31.36
2022-08-26T15:02:22.214Z,31.18
2022-08-26T15:05:01.646Z,31.00
2022-08-26T15:07:28.450Z,31.61
2022-08-26T15:09:55.276Z,31.38
2022-08-26T15:12:22.213Z,31.85
2022-08-26T15:14:49.056Z,31.91
2022-08-26T15:17:15.966Z,31.83
2022-08-26T15:19:42.896Z,31.90
2022-08-26T15:22:09.837Z,32.23
2022-08-26T15:24:36.775Z,31.90
2022-08-26T15:27:03.814Z,31.42
2022-08-26T15:29:30.687Z,31.57
2022-08-26T15:32:01.572Z,32.04
2022-08-26T15:34:28.447Z,32.15
2022-08-26T15:37:07.354Z,31.64
2022-08-26T15:39:34.751Z,31.71
2022-08-26T15:42:02.427Z,32.12
2022-08-26T15:44:29.260Z,32.37
2022-08-26T15:46:58.677Z,32.25
2022-08-26T15:49:26.556Z,32.22
2022-08-26T15:51:53.415Z,32.26
2022-08-26T15:54:22.740Z,32.57
2022-08-26T15:56:52.751Z,32.33
2022-08-26T15:59:21.835Z,32.42
2022-08-26T16:01:48.888Z,33.00
2022-08-26T16:04:15.805Z,33.21
2022-08-26T16:06:43.714Z,32.73
2022-08-26T16:09:11.574Z,32.80
2022-08-26T16:11:38.482Z,32.59
2022-08-26T16:14:08.452Z,32.87
2022-08-26T16:16:40.002Z,32.92
2022-08-26T16:19:08.536Z,32.82
2022-08-26T16:21:35.592Z,32.84
2022-08-26T16:24:03.613Z,33.31
2022-08-26T16:26:33.216Z,33.37
2022-08-26T16:29:08.756Z,33.27
2022-08-26T16:31:38.220Z,33.40
2022-08-26T16:34:06.622Z,33.45
2022-08-26T16:36:34.834Z,33.73
2022-08-26T16:39:02.069Z,34.38
2022-08-26T16:41:31.438Z,34.53
2022-08-26T16:43:59.154Z,34.54
2022-08-26T16:46:27.859Z,34.31
2022-08-26T16:48:56.507Z,35.08
2022-08-26T16:51:27.356Z,36.19
2022-08-26T16:53:56.436Z,36.07
2022-08-26T16:56:30.584Z,35.34
2022-08-26T16:59:01.037Z,35.45
2022-08-26T17:01:28.025Z,35.85
2022-08-26T17:03:54.977Z,36.39
2022-08-26T17:06:21.829Z,36.78
2022-08-26T17:08:48.731Z,36.83
2022-08-26T17:11:15.737Z,37.47
2022-08-26T17:13:43.072Z,37.19
2022-08-26T17:16:11.957Z,37.44
2022-08-26T17:18:38.918Z,37.41
2022-08-26T17:21:12.137Z,37.64
2022-08-26T17:23:41.207Z,37.70
2022-08-26T17:26:09.277Z,38.06
2022-08-26T17:28:36.207Z,38.44
2022-08-26T17:31:04.752Z,38.39
2022-08-26T17:33:31.983Z,38.40
2022-08-26T17:35:59.789Z,38.44
2022-08-26T17:38:28.004Z,39.30
2022-08-26T17:40:56.542Z,39.16
2022-08-26T17:43:24.432Z,38.73
2022-08-26T17:45:51.568Z,38.61
2022-08-26T17:48:18.460Z,38.95
2022-08-26T17:50:49.296Z,38.86
2022-08-26T17:53:18.835Z,38.94
2022-08-26T17:55:47.527Z,38.96
2022-08-26T17:58:16.275Z,39.06
2022-08-26T18:00:50.080Z,39.95
2022-08-26T18:03:18.653Z,39.79
2022-08-26T18:05:53.340Z,39.98
2022-08-26T18:08:21.157Z,39.88
2022-08-26T18:10:48.020Z,39.68
2022-08-26T18:13:15.905Z,40.09
2022-08-26T18:15:46.746Z,40.60
2022-08-26T18:18:14.943Z,40.28
2022-08-26T18:20:44.313Z,40.32
2022-08-26T18:23:12.458Z,40.46
2022-08-26T18:25:43.395Z,40.34
2022-08-26T18:28:10.702Z,40.52
2022-08-26T18:30:37.987Z,40.66
2022-08-26T18:33:04.957Z,40.70
2022-08-26T18:35:31.942Z,40.78
2022-08-26T18:38:01.321Z,40.83
2022-08-26T18:40:40.169Z,40.77
2022-08-26T18:43:07.042Z,41.13
2022-08-26T18:45:34.770Z,40.96
2022-08-26T18:48:03.005Z,41.30
2022-08-26T18:50:29.889Z,41.76
2022-08-26T18:52:56.671Z,41.71
2022-08-26T18:55:23.837Z,41.72
2022-08-26T18:57:51.452Z,42.29
2022-08-26T19:00:18.461Z,42.16
2022-08-26T19:02:47.022Z,42.46
2022-08-26T19:05:20.021Z,42.96
2022-08-26T19:07:47.952Z,43.19
2022-08-26T19:10:15.066Z,42.88
2022-08-26T19:12:42.503Z,42.50
2022-08-26T19:15:11.557Z,42.88
2022-08-26T19:17:38.480Z,43.34
2022-08-26T19:20:06.310Z,43.94
2022-08-26T19:22:33.421Z,43.96
2022-08-26T19:25:01.537Z,43.86
2022-08-26T19:27:28.372Z,44.10
2022-08-26T19:29:56.582Z,44.15
2022-08-26T19:32:24.546Z,44.36
2022-08-26T19:34:52.587Z,44.53
2022-08-26T19:37:20.731Z,44.59
2022-08-26T19:39:48.561Z,44.77
2022-08-26T19:42:16.751Z,45.12
2022-08-26T19:45:02.314Z,45.16
2022-08-26T19:47:29.192Z,45.42
2022-08-26T19:49:56.963Z,45.24
2022-08-26T19:52:30.091Z,45.50
2022-08-26T19:54:58.565Z,45.40
2022-08-26T19:57:25.484Z,45.69
2022-08-26T19:59:52.289Z,46.17
2022-08-26T20:02:19.917Z,45.72
2022-08-26T20:04:47.066Z,46.16
2022-08-26T20:07:18.067Z,46.12
2022-08-26T20:09:47.103Z,45.84
2022-08-26T20:12:15.298Z,45.78
2022-08-26T20:14:42.511Z,46.15
2022-08-26T20:17:09.377Z,46.53
2022-08-26T20:19:54.982Z,46.71
2022-08-26T20:22:22.304Z,46.88
2022-08-26T20:24:50.355Z,46.97
2022-08-26T20:27:17.125Z,47.29
2022-08-26T20:29:44.281Z,47.31
2022-08-26T20:32:12.160Z,47.40
2022-08-26T20:34:39.832Z,47.61
2022-08-26T20:37:08.625Z,47.83
2022-08-26T20:39:36.241Z,47.84
2022-08-26T20:42:03.484Z,47.78
2022-08-26T20:44:30.484Z,47.76
2022-08-26T20:46:59.379Z,47.51
2022-08-26T20:49:28.416Z,47.84
2022-08-26T20:51:55.645Z,47.97
2022-08-26T20:54:28.138Z,48.01
2022-08-26T20:56:57.639Z,48.27
2022-08-26T20:59:25.980Z,48.20
2022-08-26T21:01:53.271Z,48.34
2022-08-26T21:04:23.868Z,48.40
2022-08-26T21:06:52.749Z,48.62
2022-08-26T21:09:22.322Z,48.70
2022-08-26T21:11:50.136Z,48.74
2022-08-26T21:14:17.560Z,49.05
2022-08-26T21:16:45.566Z,48.92
2022-08-26T21:19:14.732Z,48.98
2022-08-26T21:21:42.232Z,49.34
2022-08-26T21:24:10.277Z,49.68
2022-08-26T21:26:37.526Z,49.46
2022-08-26T21:29:05.409Z,49.52
2022-08-26T21:31:32.404Z,49.61
2022-08-26T21:33:59.971Z,50.10
2022-08-26T21:36:27.109Z,50.16
2022-08-26T21:38:59.632Z,50.16
2022-08-26T21:41:27.663Z,50.16
2022-08-26T21:44:01.375Z,49.98
2022-08-26T21:46:30.371Z,49.92
2022-08-26T21:49:01.943Z,50.49
2022-08-26T21:51:33.214Z,50.67
2022-08-26T21:54:01.319Z,50.79
2022-08-26T21:56:31.535Z,50.87
2022-08-26T21:59:00.145Z,51.02
2022-08-26T22:01:32.093Z,50.67
2022-08-26T22:03:59.169Z,50.85
2022-08-26T22:06:28.510Z,51.11
2022-08-26T22:08:56.543Z,51.02
2022-08-26T22:11:25.476Z,51.00
2022-08-26T22:13:52.860Z,51.17
2022-08-26T22:16:19.850Z,51.11
2022-08-26T22:18:47.053Z,51.32
2022-08-26T22:21:20.196Z,51.54
2022-08-26T22:23:47.738Z,51.82
2022-08-26T22:26:25.597Z,51.81
2022-08-26T22:28:57.467Z,51.93
2022-08-26T22:31:37.176Z,52.12
2022-08-26T22:34:07.683Z,52.31
2022-08-26T22:36:34.513Z,52.30
2022-08-26T22:39:01.337Z,52.16
2022-08-26T22:41:28.164Z,52.50
2022-08-26T22:43:54.936Z,52.37
2022-08-26T22:46:25.234Z,52.49
2022-08-26T22:48:54.289Z,52.58
2022-08-26T22:51:22.178Z,52.64
2022-08-26T22:53:49.250Z,52.77
2022-08-26T22:56:18.557Z,53.01
2022-08-26T22:58:47.478Z,53.04
2022-08-26T23:01:15.658Z,53.01
2022-08-26T23:03:43.160Z,53.09
2022-08-26T23:06:10.793Z,53.07
2022-08-26T23:08:39.554Z,53.15
2022-08-26T23:11:11.424Z,53.16
2022-08-26T23:13:39.245Z,53.30
2022-08-26T23:16:11.060Z,53.41
2022-08-26T23:18:38.677Z,53.30
2022-08-26T23:21:06.163Z,53.25
2022-08-26T23:23:33.076Z,53.48
2022-08-26T23:26:03.259Z,53.63
2022-08-26T23:28:32.757Z,53.67
2022-08-26T23:31:00.335Z,53.75
2022-08-26T23:33:47.285Z,53.71
2022-08-26T23:36:17.679Z,54.04
2022-08-26T23:38:52.985Z,54.09
2022-08-26T23:41:22.361Z,54.24
2022-08-26T23:43:49.731Z,54.24
2022-08-26T23:46:16.442Z,54.25
2022-08-26T23:48:43.407Z,54.46
2022-08-26T23:51:29.054Z,54.53
2022-08-26T23:53:56.329Z,54.76
2022-08-26T23:56:23.174Z,54.59
2022-08-26T23:58:49.851Z,54.45
